Aérodrome :
LOGIN :

S'inscrire | Disclaimer

   EN    FR    IT 

 










Légende :    VFR   VFR Marginal   IFR   IFR Intensif   IFR Très Intensif
Visi : 
Plafond : 
>= 8 km
>= 3000ft
5 à 8 km
1000 à 3000 ft
1500m à 5 km
500 à 1000 ft
800 à 1500m
200 à 500 ft
< 800m
< 200 ft
Symboles :   Orages  Brouillard  Fortes neiges  Fortes précipitations  Vent > 20 kt
SIGMETs :   Divers  Orages  Givrage  Turbulence  Onde Orograph.  Cendres Volcan.







- Altitude de l'aérodrome : 287 ft
- Voir les cartes d'approche


LFRL - Lanveoc Poulmic

DERNIER METAR :
  • 011730Z AUTO 27016KT 9999 SCT039 BKN210 10/05 Q1007 BECMG 27017G30KT

METARs EXPIRÉS :
  • 011700Z AUTO 28017KT 9999 FEW037 SCT160 BKN190 10/04 Q1006 BECMG 27017G30KT
  • 011630Z AUTO 28017G27KT 9999 -RA FEW033 BKN042 BKN140 10/05 Q1006 NOSIG
  • 011600Z AUTO 27017KT 9999 BKN027 BKN034 BKN042 10/06 Q1005 BECMG 27017G30KT
  • 011530Z AUTO 26016KT 9999 FEW019 BKN033 OVC110 10/06 Q1005 BECMG 27017G30KT
  • 011500Z AUTO 26014KT 9999 BKN023 BKN033 BKN046 10/08 Q1004 BECMG 27017G30KT

TAF TAF LFRL
Valide du 01 à 15h jusqu'au 02 à 00h UTC


011400Z 0115/0124 27017G30KT 8000 RA SCT005 BKN010 OVC022
BECMG 0115/0116 NSW SCT025 SCT040
Pas de NOTAMs connus pour ce terrain.
1 SIGMET publié pour la FIR Brest (LFRR) :
 
Turbulence forte
LFRR SIGMET 2 VALID 011600/012000 LFPW
LFRR BREST FIR/UIR SEV TURB OBS WI N4715 W00015 - N4630 W00015 - N4630 W00130 - N4530 W00145 - N4715 W00400 - N4745 W00115 SFC/FL040 STNR NC=



MET'MAP, la Météo Aéronautique d'un coup d'oeil ! - Copyright ORBIFLY Décembre 2007 - Disclaimer

ORBIFLY MET'MAP TEAM :

Programmation & Développement : Alexandra Zaïnal
Conception & Développement : Baudouin d'Aumeries
Co-Programmation & Développement : Marc-Olivier Méhu
Soutien technique & logistique : Manuel Goepfert

Contact : metmap@orbifly.com




SOURCES & CREDITS :

   NOAA